sensor_id;sensor_type;location;lat;lon;timestamp;temperature;humidity
45765;DHT22;31474;45.332;10.230;2023-08-07T00:01:48;21.40;99.90
45765;DHT22;31474;45.332;10.230;2023-08-07T00:04:13;21.40;99.90
45765;DHT22;31474;45.332;10.230;2023-08-07T00:06:39;21.40;99.90
45765;DHT22;31474;45.332;10.230;2023-08-07T00:09:04;21.40;99.90
45765;DHT22;31474;45.332;10.230;2023-08-07T00:11:30;21.40;99.90
45765;DHT22;31474;45.332;10.230;2023-08-07T00:13:57;21.40;99.90
45765;DHT22;31474;45.332;10.230;2023-08-07T00:16:23;21.40;99.90
45765;DHT22;31474;45.332;10.230;2023-08-07T00:18:48;21.30;99.90
45765;DHT22;31474;45.332;10.230;2023-08-07T00:21:14;21.30;99.90
45765;DHT22;31474;45.332;10.230;2023-08-07T00:23:39;21.30;99.90
45765;DHT22;31474;45.332;10.230;2023-08-07T00:26:05;21.20;99.90
45765;DHT22;31474;45.332;10.230;2023-08-07T00:28:31;21.10;99.90
45765;DHT22;31474;45.332;10.230;2023-08-07T00:30:56;21.10;99.90
45765;DHT22;31474;45.332;10.230;2023-08-07T00:33:22;21.10;99.90
45765;DHT22;31474;45.332;10.230;2023-08-07T00:35:48;21.10;99.90
45765;DHT22;31474;45.332;10.230;2023-08-07T00:38:13;21.10;99.90
45765;DHT22;31474;45.332;10.230;2023-08-07T00:40:41;21.10;99.90
45765;DHT22;31474;45.332;10.230;2023-08-07T00:43:07;21.00;99.90
45765;DHT22;31474;45.332;10.230;2023-08-07T00:45:41;21.00;99.90
45765;DHT22;31474;45.332;10.230;2023-08-07T00:48:07;21.00;99.90
45765;DHT22;31474;45.332;10.230;2023-08-07T00:50:33;21.00;99.90
45765;DHT22;31474;45.332;10.230;2023-08-07T00:52:59;20.90;99.90
45765;DHT22;31474;45.332;10.230;2023-08-07T00:55:26;20.90;99.90
45765;DHT22;31474;45.332;10.230;2023-08-07T00:57:52;20.90;99.90
45765;DHT22;31474;45.332;10.230;2023-08-07T01:00:18;20.90;99.90
45765;DHT22;31474;45.332;10.230;2023-08-07T01:02:46;20.80;99.90
45765;DHT22;31474;45.332;10.230;2023-08-07T01:05:14;20.70;99.90
45765;DHT22;31474;45.332;10.230;2023-08-07T01:07:40;20.60;99.90
45765;DHT22;31474;45.332;10.230;2023-08-07T01:10:06;20.60;99.90
45765;DHT22;31474;45.332;10.230;2023-08-07T01:12:42;20.60;99.90
45765;DHT22;31474;45.332;10.230;2023-08-07T01:15:12;20.50;99.90
45765;DHT22;31474;45.332;10.230;2023-08-07T01:17:39;20.50;99.90
45765;DHT22;31474;45.332;10.230;2023-08-07T01:20:06;20.60;99.90
45765;DHT22;31474;45.332;10.230;2023-08-07T01:22:32;20.50;99.90
45765;DHT22;31474;45.332;10.230;2023-08-07T01:24:58;20.50;99.90
45765;DHT22;31474;45.332;10.230;2023-08-07T01:27:37;20.60;99.90
45765;DHT22;31474;45.332;10.230;2023-08-07T01:35:29;20.50;99.90
45765;DHT22;31474;45.332;10.230;2023-08-07T01:37:57;20.40;99.90
45765;DHT22;31474;45.332;10.230;2023-08-07T01:40:24;20.40;99.90
45765;DHT22;31474;45.332;10.230;2023-08-07T01:42:50;20.40;99.90
45765;DHT22;31474;45.332;10.230;2023-08-07T01:45:23;20.30;99.90
45765;DHT22;31474;45.332;10.230;2023-08-07T01:47:49;20.40;99.90
45765;DHT22;31474;45.332;10.230;2023-08-07T01:50:15;20.40;99.90
45765;DHT22;31474;45.332;10.230;2023-08-07T01:52:40;20.40;99.90
45765;DHT22;31474;45.332;10.230;2023-08-07T01:55:06;20.40;99.90
45765;DHT22;31474;45.332;10.230;2023-08-07T01:57:32;20.40;99.90
45765;DHT22;31474;45.332;10.230;2023-08-07T01:59:58;20.40;99.90
45765;DHT22;31474;45.332;10.230;2023-08-07T02:02:24;20.40;99.90
45765;DHT22;31474;45.332;10.230;2023-08-07T02:04:50;20.40;99.90
45765;DHT22;31474;45.332;10.230;2023-08-07T02:07:15;20.40;99.90
45765;DHT22;31474;45.332;10.230;2023-08-07T02:09:41;20.30;99.90
45765;DHT22;31474;45.332;10.230;2023-08-07T02:12:07;20.30;99.90
45765;DHT22;31474;45.332;10.230;2023-08-07T02:14:33;20.30;99.90
45765;DHT22;31474;45.332;10.230;2023-08-07T02:16:59;20.20;99.90
45765;DHT22;31474;45.332;10.230;2023-08-07T02:19:24;20.30;99.90
45765;DHT22;31474;45.332;10.230;2023-08-07T02:21:50;20.30;99.90
45765;DHT22;31474;45.332;10.230;2023-08-07T02:24:16;20.30;99.90
45765;DHT22;31474;45.332;10.230;2023-08-07T02:26:41;20.20;99.90
45765;DHT22;31474;45.332;10.230;2023-08-07T02:29:07;20.20;99.90
45765;DHT22;31474;45.332;10.230;2023-08-07T02:31:34;20.20;99.90
45765;DHT22;31474;45.332;10.230;2023-08-07T02:34:00;20.10;99.90
45765;DHT22;31474;45.332;10.230;2023-08-07T02:36:25;20.00;99.90
45765;DHT22;31474;45.332;10.230;2023-08-07T02:38:51;20.00;99.90
45765;DHT22;31474;45.332;10.230;2023-08-07T02:41:17;20.00;99.90
45765;DHT22;31474;45.332;10.230;2023-08-07T02:43:42;20.00;99.90
45765;DHT22;31474;45.332;10.230;2023-08-07T02:46:08;20.00;99.90
45765;DHT22;31474;45.332;10.230;2023-08-07T02:48:34;20.00;99.90
45765;DHT22;31474;45.332;10.230;2023-08-07T02:50:59;19.90;99.90
45765;DHT22;31474;45.332;10.230;2023-08-07T02:53:25;19.90;99.90
45765;DHT22;31474;45.332;10.230;2023-08-07T02:55:51;19.90;99.90
45765;DHT22;31474;45.332;10.230;2023-08-07T02:58:16;19.90;99.90
45765;DHT22;31474;45.332;10.230;2023-08-07T03:00:42;19.90;99.90
45765;DHT22;31474;45.332;10.230;2023-08-07T03:03:08;19.80;99.90
45765;DHT22;31474;45.332;10.230;2023-08-07T03:05:34;19.80;99.90
45765;DHT22;31474;45.332;10.230;2023-08-07T03:08:00;19.70;99.90
45765;DHT22;31474;45.332;10.230;2023-08-07T03:10:26;19.70;99.90
45765;DHT22;31474;45.332;10.230;2023-08-07T03:12:51;19.70;99.90
45765;DHT22;31474;45.332;10.230;2023-08-07T03:15:17;19.70;99.90
45765;DHT22;31474;45.332;10.230;2023-08-07T03:17:42;19.80;99.90
45765;DHT22;31474;45.332;10.230;2023-08-07T03:20:08;19.80;99.90
45765;DHT22;31474;45.332;10.230;2023-08-07T03:22:35;19.80;99.90
45765;DHT22;31474;45.332;10.230;2023-08-07T03:25:00;19.80;99.90
45765;DHT22;31474;45.332;10.230;2023-08-07T03:27:26;19.90;99.90
45765;DHT22;31474;45.332;10.230;2023-08-07T03:29:51;19.80;99.90
45765;DHT22;31474;45.332;10.230;2023-08-07T03:32:18;19.80;99.90
45765;DHT22;31474;45.332;10.230;2023-08-07T03:34:43;19.80;99.90
45765;DHT22;31474;45.332;10.230;2023-08-07T03:37:09;19.70;99.90
45765;DHT22;31474;45.332;10.230;2023-08-07T03:39:35;19.70;99.90
45765;DHT22;31474;45.332;10.230;2023-08-07T03:42:00;19.70;99.90
45765;DHT22;31474;45.332;10.230;2023-08-07T03:44:26;19.80;99.90
45765;DHT22;31474;45.332;10.230;2023-08-07T03:46:52;19.70;99.90
45765;DHT22;31474;45.332;10.230;2023-08-07T03:49:17;19.70;99.90
45765;DHT22;31474;45.332;10.230;2023-08-07T03:51:43;19.70;99.90
45765;DHT22;31474;45.332;10.230;2023-08-07T03:54:09;19.70;99.90
45765;DHT22;31474;45.332;10.230;2023-08-07T03:56:34;19.60;99.90
45765;DHT22;31474;45.332;10.230;2023-08-07T03:59:03;19.60;99.90
45765;DHT22;31474;45.332;10.230;2023-08-07T04:01:29;19.60;99.90
45765;DHT22;31474;45.332;10.230;2023-08-07T04:03:54;19.60;99.90
45765;DHT22;31474;45.332;10.230;2023-08-07T04:06:20;19.60;99.90
45765;DHT22;31474;45.332;10.230;2023-08-07T04:08:46;19.60;99.90
45765;DHT22;31474;45.332;10.230;2023-08-07T04:11:12;19.50;99.90
45765;DHT22;31474;45.332;10.230;2023-08-07T04:13:38;19.40;99.90
45765;DHT22;31474;45.332;10.230;2023-08-07T04:16:04;19.50;99.90
45765;DHT22;31474;45.332;10.230;2023-08-07T04:18:31;19.50;99.90
45765;DHT22;31474;45.332;10.230;2023-08-07T04:20:57;19.60;99.90
45765;DHT22;31474;45.332;10.230;2023-08-07T04:23:23;19.60;99.90
45765;DHT22;31474;45.332;10.230;2023-08-07T04:25:49;19.60;99.90
45765;DHT22;31474;45.332;10.230;2023-08-07T04:28:15;19.50;99.90
45765;DHT22;31474;45.332;10.230;2023-08-07T04:30:41;19.50;99.90
45765;DHT22;31474;45.332;10.230;2023-08-07T04:33:07;19.50;99.90
45765;DHT22;31474;45.332;10.230;2023-08-07T04:35:33;19.50;99.90
45765;DHT22;31474;45.332;10.230;2023-08-07T04:38:00;19.50;99.90
45765;DHT22;31474;45.332;10.230;2023-08-07T04:40:25;19.60;99.90
45765;DHT22;31474;45.332;10.230;2023-08-07T04:42:51;19.60;99.90
45765;DHT22;31474;45.332;10.230;2023-08-07T04:45:17;19.70;99.90
45765;DHT22;31474;45.332;10.230;2023-08-07T04:47:43;19.70;99.90
45765;DHT22;31474;45.332;10.230;2023-08-07T04:50:09;19.60;99.90
45765;DHT22;31474;45.332;10.230;2023-08-07T04:52:35;19.60;99.90
45765;DHT22;31474;45.332;10.230;2023-08-07T04:55:01;19.60;99.90
45765;DHT22;31474;45.332;10.230;2023-08-07T04:57:27;19.70;99.90
45765;DHT22;31474;45.332;10.230;2023-08-07T04:59:53;19.70;99.90
45765;DHT22;31474;45.332;10.230;2023-08-07T05:02:19;19.80;99.90
45765;DHT22;31474;45.332;10.230;2023-08-07T05:04:45;19.80;99.90
45765;DHT22;31474;45.332;10.230;2023-08-07T05:07:10;19.80;99.90
45765;DHT22;31474;45.332;10.230;2023-08-07T05:09:36;19.80;99.90
45765;DHT22;31474;45.332;10.230;2023-08-07T05:12:02;19.90;99.90
45765;DHT22;31474;45.332;10.230;2023-08-07T05:14:29;20.10;99.90
45765;DHT22;31474;45.332;10.230;2023-08-07T05:16:55;20.10;99.90
45765;DHT22;31474;45.332;10.230;2023-08-07T05:19:21;20.20;99.90
45765;DHT22;31474;45.332;10.230;2023-08-07T05:21:48;20.40;99.90
45765;DHT22;31474;45.332;10.230;2023-08-07T05:24:17;20.50;99.90
45765;DHT22;31474;45.332;10.230;2023-08-07T05:26:43;20.60;99.90
45765;DHT22;31474;45.332;10.230;2023-08-07T05:29:09;20.80;99.90
45765;DHT22;31474;45.332;10.230;2023-08-07T05:31:34;21.00;99.90
45765;DHT22;31474;45.332;10.230;2023-08-07T05:34:00;21.10;99.90
45765;DHT22;31474;45.332;10.230;2023-08-07T05:36:26;21.30;99.90
45765;DHT22;31474;45.332;10.230;2023-08-07T05:38:51;21.40;99.90
45765;DHT22;31474;45.332;10.230;2023-08-07T05:41:17;21.50;99.90
45765;DHT22;31474;45.332;10.230;2023-08-07T05:43:43;21.60;99.90
45765;DHT22;31474;45.332;10.230;2023-08-07T05:46:08;21.60;99.90
45765;DHT22;31474;45.332;10.230;2023-08-07T05:48:34;21.70;99.90
45765;DHT22;31474;45.332;10.230;2023-08-07T05:51:00;21.70;99.90
45765;DHT22;31474;45.332;10.230;2023-08-07T05:53:26;21.80;99.90
45765;DHT22;31474;45.332;10.230;2023-08-07T05:55:52;21.90;99.90
45765;DHT22;31474;45.332;10.230;2023-08-07T05:58:17;22.00;99.90
45765;DHT22;31474;45.332;10.230;2023-08-07T06:00:44;22.00;99.90
45765;DHT22;31474;45.332;10.230;2023-08-07T06:03:10;22.00;99.90
45765;DHT22;31474;45.332;10.230;2023-08-07T06:05:35;22.10;99.90
45765;DHT22;31474;45.332;10.230;2023-08-07T06:08:01;22.20;99.90
45765;DHT22;31474;45.332;10.230;2023-08-07T06:10:27;22.30;99.90
45765;DHT22;31474;45.332;10.230;2023-08-07T06:12:53;22.40;99.90
45765;DHT22;31474;45.332;10.230;2023-08-07T06:15:18;22.50;99.90
45765;DHT22;31474;45.332;10.230;2023-08-07T06:17:45;22.60;99.90
45765;DHT22;31474;45.332;10.230;2023-08-07T06:20:11;22.70;99.90
45765;DHT22;31474;45.332;10.230;2023-08-07T06:22:40;22.70;99.90
45765;DHT22;31474;45.332;10.230;2023-08-07T06:25:06;22.70;99.90
45765;DHT22;31474;45.332;10.230;2023-08-07T06:27:32;22.70;99.90
45765;DHT22;31474;45.332;10.230;2023-08-07T06:29:58;22.80;99.90
45765;DHT22;31474;45.332;10.230;2023-08-07T06:32:25;23.00;99.90
45765;DHT22;31474;45.332;10.230;2023-08-07T06:34:51;23.00;99.90
45765;DHT22;31474;45.332;10.230;2023-08-07T06:37:16;23.00;99.90
45765;DHT22;31474;45.332;10.230;2023-08-07T06:39:42;22.90;99.90
45765;DHT22;31474;45.332;10.230;2023-08-07T06:42:08;22.80;99.90
45765;DHT22;31474;45.332;10.230;2023-08-07T06:44:33;22.80;99.90
45765;DHT22;31474;45.332;10.230;2023-08-07T06:46:59;23.00;99.90
45765;DHT22;31474;45.332;10.230;2023-08-07T06:49:25;23.30;99.90
45765;DHT22;31474;45.332;10.230;2023-08-07T06:51:50;23.50;99.90
45765;DHT22;31474;45.332;10.230;2023-08-07T06:54:16;23.70;99.90
45765;DHT22;31474;45.332;10.230;2023-08-07T06:56:41;23.70;99.90
45765;DHT22;31474;45.332;10.230;2023-08-07T06:59:08;23.80;99.90
45765;DHT22;31474;45.332;10.230;2023-08-07T07:01:34;23.70;99.90
45765;DHT22;31474;45.332;10.230;2023-08-07T07:04:00;23.60;99.90
45765;DHT22;31474;45.332;10.230;2023-08-07T07:06:25;23.60;99.90
45765;DHT22;31474;45.332;10.230;2023-08-07T07:08:51;23.80;99.90
45765;DHT22;31474;45.332;10.230;2023-08-07T07:11:20;24.10;99.90
45765;DHT22;31474;45.332;10.230;2023-08-07T07:13:46;24.30;99.90
45765;DHT22;31474;45.332;10.230;2023-08-07T07:16:12;24.40;99.90
45765;DHT22;31474;45.332;10.230;2023-08-07T07:18:39;24.60;99.90
45765;DHT22;31474;45.332;10.230;2023-08-07T07:21:04;24.70;99.90
45765;DHT22;31474;45.332;10.230;2023-08-07T07:23:30;24.80;99.90
45765;DHT22;31474;45.332;10.230;2023-08-07T07:25:56;24.90;99.90
45765;DHT22;31474;45.332;10.230;2023-08-07T07:28:23;25.10;99.90
45765;DHT22;31474;45.332;10.230;2023-08-07T07:30:49;24.90;99.90
45765;DHT22;31474;45.332;10.230;2023-08-07T07:33:16;25.00;99.90
45765;DHT22;31474;45.332;10.230;2023-08-07T07:35:42;25.00;99.90
45765;DHT22;31474;45.332;10.230;2023-08-07T07:38:09;25.20;99.90
45765;DHT22;31474;45.332;10.230;2023-08-07T07:40:35;25.40;99.90
45765;DHT22;31474;45.332;10.230;2023-08-07T07:43:02;25.50;99.90
45765;DHT22;31474;45.332;10.230;2023-08-07T07:45:28;25.60;99.90
45765;DHT22;31474;45.332;10.230;2023-08-07T07:47:53;25.80;99.90
45765;DHT22;31474;45.332;10.230;2023-08-07T07:50:19;26.00;99.90
45765;DHT22;31474;45.332;10.230;2023-08-07T07:52:45;26.10;99.90
45765;DHT22;31474;45.332;10.230;2023-08-07T07:55:10;26.20;99.90
45765;DHT22;31474;45.332;10.230;2023-08-07T07:57:37;26.30;99.60
45765;DHT22;31474;45.332;10.230;2023-08-07T08:00:03;26.30;99.80
45765;DHT22;31474;45.332;10.230;2023-08-07T08:02:33;26.20;99.60
45765;DHT22;31474;45.332;10.230;2023-08-07T08:04:58;26.20;99.20
45765;DHT22;31474;45.332;10.230;2023-08-07T08:07:24;26.20;99.40
45765;DHT22;31474;45.332;10.230;2023-08-07T08:09:50;26.20;99.90
45765;DHT22;31474;45.332;10.230;2023-08-07T08:12:16;26.20;98.40
45765;DHT22;31474;45.332;10.230;2023-08-07T08:14:42;25.90;98.90
45765;DHT22;31474;45.332;10.230;2023-08-07T08:17:07;25.90;98.60
45765;DHT22;31474;45.332;10.230;2023-08-07T08:19:33;26.00;99.00
45765;DHT22;31474;45.332;10.230;2023-08-07T08:21:59;26.30;99.20
45765;DHT22;31474;45.332;10.230;2023-08-07T08:24:24;26.40;98.50
45765;DHT22;31474;45.332;10.230;2023-08-07T08:26:50;26.40;98.30
45765;DHT22;31474;45.332;10.230;2023-08-07T08:29:16;26.30;98.20
45765;DHT22;31474;45.332;10.230;2023-08-07T08:31:41;26.20;98.40
45765;DHT22;31474;45.332;10.230;2023-08-07T08:34:07;26.10;98.20
45765;DHT22;31474;45.332;10.230;2023-08-07T08:36:33;26.20;98.60
45765;DHT22;31474;45.332;10.230;2023-08-07T08:38:58;26.40;97.90
45765;DHT22;31474;45.332;10.230;2023-08-07T08:41:24;26.60;97.70
45765;DHT22;31474;45.332;10.230;2023-08-07T08:43:51;26.40;96.70
45765;DHT22;31474;45.332;10.230;2023-08-07T08:46:20;26.30;97.00
45765;DHT22;31474;45.332;10.230;2023-08-07T08:48:50;26.40;97.30
45765;DHT22;31474;45.332;10.230;2023-08-07T08:51:16;26.50;97.20
45765;DHT22;31474;45.332;10.230;2023-08-07T08:53:45;26.70;96.90
45765;DHT22;31474;45.332;10.230;2023-08-07T08:56:11;26.90;97.10
45765;DHT22;31474;45.332;10.230;2023-08-07T08:58:38;27.10;96.50
45765;DHT22;31474;45.332;10.230;2023-08-07T09:01:04;27.20;96.60
45765;DHT22;31474;45.332;10.230;2023-08-07T09:03:31;27.20;95.40
45765;DHT22;31474;45.332;10.230;2023-08-07T09:05:58;26.90;95.50
45765;DHT22;31474;45.332;10.230;2023-08-07T09:08:27;27.10;96.10
45765;DHT22;31474;45.332;10.230;2023-08-07T09:10:56;27.40;94.90
45765;DHT22;31474;45.332;10.230;2023-08-07T09:13:24;27.40;94.80
45765;DHT22;31474;45.332;10.230;2023-08-07T09:15:53;27.60;95.20
45765;DHT22;31474;45.332;10.230;2023-08-07T09:18:19;27.50;93.60
45765;DHT22;31474;45.332;10.230;2023-08-07T09:20:48;27.40;93.90
45765;DHT22;31474;45.332;10.230;2023-08-07T09:23:15;27.50;94.50
45765;DHT22;31474;45.332;10.230;2023-08-07T09:25:42;27.70;93.10
45765;DHT22;31474;45.332;10.230;2023-08-07T09:28:08;27.80;91.40
45765;DHT22;31474;45.332;10.230;2023-08-07T09:30:36;27.80;92.70
45765;DHT22;31474;45.332;10.230;2023-08-07T09:33:07;28.10;91.60
45765;DHT22;31474;45.332;10.230;2023-08-07T09:35:33;28.10;91.50
45765;DHT22;31474;45.332;10.230;2023-08-07T09:37:59;28.10;92.30
45765;DHT22;31474;45.332;10.230;2023-08-07T09:40:25;28.20;91.20
45765;DHT22;31474;45.332;10.230;2023-08-07T09:42:54;28.30;91.50
45765;DHT22;31474;45.332;10.230;2023-08-07T09:45:24;28.30;89.60
45765;DHT22;31474;45.332;10.230;2023-08-07T09:48:00;28.10;90.70
45765;DHT22;31474;45.332;10.230;2023-08-07T09:50:27;28.20;89.40
45765;DHT22;31474;45.332;10.230;2023-08-07T09:52:53;28.00;90.00
45765;DHT22;31474;45.332;10.230;2023-08-07T09:55:20;28.00;87.90
45765;DHT22;31474;45.332;10.230;2023-08-07T09:57:46;28.10;90.60
45765;DHT22;31474;45.332;10.230;2023-08-07T10:00:12;28.20;90.50
45765;DHT22;31474;45.332;10.230;2023-08-07T10:02:40;28.30;90.60
45765;DHT22;31474;45.332;10.230;2023-08-07T10:05:06;28.30;90.30
45765;DHT22;31474;45.332;10.230;2023-08-07T10:07:34;28.30;90.10
45765;DHT22;31474;45.332;10.230;2023-08-07T10:10:00;28.30;90.70
45765;DHT22;31474;45.332;10.230;2023-08-07T10:12:27;28.30;88.60
45765;DHT22;31474;45.332;10.230;2023-08-07T10:14:54;28.40;90.10
45765;DHT22;31474;45.332;10.230;2023-08-07T10:17:21;28.40;86.00
45765;DHT22;31474;45.332;10.230;2023-08-07T10:19:48;28.30;85.40
45765;DHT22;31474;45.332;10.230;2023-08-07T10:22:15;28.30;87.90
45765;DHT22;31474;45.332;10.230;2023-08-07T10:24:42;28.50;88.80
45765;DHT22;31474;45.332;10.230;2023-08-07T10:27:10;28.50;85.70
45765;DHT22;31474;45.332;10.230;2023-08-07T10:29:37;28.40;83.50
45765;DHT22;31474;45.332;10.230;2023-08-07T10:32:04;28.30;87.00
45765;DHT22;31474;45.332;10.230;2023-08-07T10:34:33;28.40;85.20
45765;DHT22;31474;45.332;10.230;2023-08-07T10:36:59;28.50;84.10
45765;DHT22;31474;45.332;10.230;2023-08-07T10:39:24;28.60;84.70
45765;DHT22;31474;45.332;10.230;2023-08-07T10:41:53;28.80;86.50
45765;DHT22;31474;45.332;10.230;2023-08-07T10:44:22;28.90;88.60
45765;DHT22;31474;45.332;10.230;2023-08-07T10:46:53;29.10;87.50
45765;DHT22;31474;45.332;10.230;2023-08-07T10:49:32;29.10;80.50
45765;DHT22;31474;45.332;10.230;2023-08-07T10:51:59;29.00;79.90
45765;DHT22;31474;45.332;10.230;2023-08-07T10:54:25;28.90;83.50
45765;DHT22;31474;45.332;10.230;2023-08-07T10:56:54;29.00;84.00
45765;DHT22;31474;45.332;10.230;2023-08-07T10:59:20;29.10;82.50
45765;DHT22;31474;45.332;10.230;2023-08-07T11:01:51;29.10;83.00
45765;DHT22;31474;45.332;10.230;2023-08-07T11:04:17;29.10;79.70
45765;DHT22;31474;45.332;10.230;2023-08-07T11:06:47;29.20;85.80
45765;DHT22;31474;45.332;10.230;2023-08-07T11:09:12;29.30;79.30
45765;DHT22;31474;45.332;10.230;2023-08-07T11:11:48;29.30;80.30
45765;DHT22;31474;45.332;10.230;2023-08-07T11:14:18;29.40;74.00
45765;DHT22;31474;45.332;10.230;2023-08-07T11:16:45;29.30;76.40
45765;DHT22;31474;45.332;10.230;2023-08-07T11:19:16;29.20;74.00
45765;DHT22;31474;45.332;10.230;2023-08-07T11:21:42;29.20;76.10
45765;DHT22;31474;45.332;10.230;2023-08-07T11:24:08;29.30;73.20
45765;DHT22;31474;45.332;10.230;2023-08-07T11:26:34;29.40;75.50
45765;DHT22;31474;45.332;10.230;2023-08-07T11:28:59;29.50;74.60
45765;DHT22;31474;45.332;10.230;2023-08-07T11:31:25;29.60;76.40
45765;DHT22;31474;45.332;10.230;2023-08-07T11:33:57;29.70;76.40
45765;DHT22;31474;45.332;10.230;2023-08-07T11:36:24;29.80;70.20
45765;DHT22;31474;45.332;10.230;2023-08-07T11:38:50;29.70;74.70
45765;DHT22;31474;45.332;10.230;2023-08-07T11:41:17;29.80;74.70
45765;DHT22;31474;45.332;10.230;2023-08-07T11:43:43;29.80;74.10
45765;DHT22;31474;45.332;10.230;2023-08-07T11:46:13;29.70;71.10
45765;DHT22;31474;45.332;10.230;2023-08-07T11:48:41;29.60;65.70
45765;DHT22;31474;45.332;10.230;2023-08-07T11:51:07;29.60;69.10
45765;DHT22;31474;45.332;10.230;2023-08-07T11:53:37;29.60;72.70
45765;DHT22;31474;45.332;10.230;2023-08-07T11:56:07;29.70;70.00
45765;DHT22;31474;45.332;10.230;2023-08-07T11:58:41;29.80;70.30
45765;DHT22;31474;45.332;10.230;2023-08-07T12:01:10;29.90;70.50
45765;DHT22;31474;45.332;10.230;2023-08-07T12:03:37;29.90;70.40
45765;DHT22;31474;45.332;10.230;2023-08-07T12:06:07;29.90;72.50
45765;DHT22;31474;45.332;10.230;2023-08-07T12:08:36;30.00;69.80
45765;DHT22;31474;45.332;10.230;2023-08-07T12:11:04;29.90;67.00
45765;DHT22;31474;45.332;10.230;2023-08-07T12:13:31;29.70;68.90
45765;DHT22;31474;45.332;10.230;2023-08-07T12:15:58;29.80;67.10
45765;DHT22;31474;45.332;10.230;2023-08-07T12:18:26;29.70;69.00
45765;DHT22;31474;45.332;10.230;2023-08-07T12:20:56;29.80;69.80
45765;DHT22;31474;45.332;10.230;2023-08-07T12:23:23;29.90;70.10
45765;DHT22;31474;45.332;10.230;2023-08-07T12:25:48;30.00;72.00
45765;DHT22;31474;45.332;10.230;2023-08-07T12:28:15;30.00;69.50
45765;DHT22;31474;45.332;10.230;2023-08-07T12:30:45;30.00;69.80
45765;DHT22;31474;45.332;10.230;2023-08-07T12:33:11;29.90;69.50
45765;DHT22;31474;45.332;10.230;2023-08-07T12:35:36;30.00;69.20
45765;DHT22;31474;45.332;10.230;2023-08-07T12:38:02;30.00;69.40
45765;DHT22;31474;45.332;10.230;2023-08-07T12:40:31;30.00;68.90
45765;DHT22;31474;45.332;10.230;2023-08-07T12:42:58;30.00;69.30
45765;DHT22;31474;45.332;10.230;2023-08-07T12:45:24;30.00;70.00
45765;DHT22;31474;45.332;10.230;2023-08-07T12:47:49;30.00;68.90
45765;DHT22;31474;45.332;10.230;2023-08-07T12:50:15;30.00;68.90
45765;DHT22;31474;45.332;10.230;2023-08-07T12:52:41;29.90;68.40
45765;DHT22;31474;45.332;10.230;2023-08-07T12:55:07;29.70;67.60
45765;DHT22;31474;45.332;10.230;2023-08-07T12:57:33;29.70;66.60
45765;DHT22;31474;45.332;10.230;2023-08-07T12:59:59;29.80;69.40
45765;DHT22;31474;45.332;10.230;2023-08-07T13:02:25;29.80;70.10
45765;DHT22;31474;45.332;10.230;2023-08-07T13:04:50;29.90;68.90
45765;DHT22;31474;45.332;10.230;2023-08-07T13:07:17;29.90;67.90
45765;DHT22;31474;45.332;10.230;2023-08-07T13:09:42;29.80;68.00
45765;DHT22;31474;45.332;10.230;2023-08-07T13:12:08;29.80;69.50
45765;DHT22;31474;45.332;10.230;2023-08-07T13:14:34;29.80;67.20
45765;DHT22;31474;45.332;10.230;2023-08-07T13:17:00;29.80;69.50
45765;DHT22;31474;45.332;10.230;2023-08-07T13:19:25;29.80;68.10
45765;DHT22;31474;45.332;10.230;2023-08-07T13:21:51;29.90;68.10
45765;DHT22;31474;45.332;10.230;2023-08-07T13:24:17;29.90;67.10
45765;DHT22;31474;45.332;10.230;2023-08-07T13:26:42;29.90;67.00
45765;DHT22;31474;45.332;10.230;2023-08-07T13:29:11;29.90;66.90
45765;DHT22;31474;45.332;10.230;2023-08-07T13:31:37;29.90;66.60
45765;DHT22;31474;45.332;10.230;2023-08-07T13:34:03;29.90;67.70
45765;DHT22;31474;45.332;10.230;2023-08-07T13:36:35;29.90;68.10
45765;DHT22;31474;45.332;10.230;2023-08-07T13:39:01;29.90;64.10
45765;DHT22;31474;45.332;10.230;2023-08-07T13:41:27;29.90;65.80
45765;DHT22;31474;45.332;10.230;2023-08-07T13:43:53;29.90;65.50
45765;DHT22;31474;45.332;10.230;2023-08-07T13:46:18;29.70;64.10
45765;DHT22;31474;45.332;10.230;2023-08-07T13:48:45;29.70;65.60
45765;DHT22;31474;45.332;10.230;2023-08-07T13:51:10;29.70;63.70
45765;DHT22;31474;45.332;10.230;2023-08-07T13:53:37;29.70;65.40
45765;DHT22;31474;45.332;10.230;2023-08-07T13:56:02;29.60;62.70
45765;DHT22;31474;45.332;10.230;2023-08-07T13:58:29;29.50;64.40
45765;DHT22;31474;45.332;10.230;2023-08-07T14:00:55;29.50;65.90
45765;DHT22;31474;45.332;10.230;2023-08-07T14:03:21;29.60;66.50
45765;DHT22;31474;45.332;10.230;2023-08-07T14:05:47;29.50;65.20
45765;DHT22;31474;45.332;10.230;2023-08-07T14:08:13;29.60;67.70
45765;DHT22;31474;45.332;10.230;2023-08-07T14:10:39;29.50;65.20
45765;DHT22;31474;45.332;10.230;2023-08-07T14:13:06;29.60;66.50
45765;DHT22;31474;45.332;10.230;2023-08-07T14:15:32;29.60;65.50
45765;DHT22;31474;45.332;10.230;2023-08-07T14:17:58;29.70;65.40
45765;DHT22;31474;45.332;10.230;2023-08-07T14:20:23;29.70;65.40
45765;DHT22;31474;45.332;10.230;2023-08-07T14:22:50;29.80;65.60
45765;DHT22;31474;45.332;10.230;2023-08-07T14:25:16;29.70;64.00
45765;DHT22;31474;45.332;10.230;2023-08-07T14:27:41;29.60;63.00
45765;DHT22;31474;45.332;10.230;2023-08-07T14:30:07;29.60;64.00
45765;DHT22;31474;45.332;10.230;2023-08-07T14:32:33;29.60;64.60
45765;DHT22;31474;45.332;10.230;2023-08-07T14:34:59;29.60;64.10
45765;DHT22;31474;45.332;10.230;2023-08-07T14:37:24;29.60;65.10
45765;DHT22;31474;45.332;10.230;2023-08-07T14:39:50;29.60;64.70
45765;DHT22;31474;45.332;10.230;2023-08-07T14:42:16;29.60;65.10
45765;DHT22;31474;45.332;10.230;2023-08-07T14:44:42;29.50;64.80
45765;DHT22;31474;45.332;10.230;2023-08-07T14:47:07;29.60;65.00
45765;DHT22;31474;45.332;10.230;2023-08-07T14:49:33;29.60;65.40
45765;DHT22;31474;45.332;10.230;2023-08-07T14:51:59;29.60;64.20
45765;DHT22;31474;45.332;10.230;2023-08-07T14:54:25;29.60;65.60
45765;DHT22;31474;45.332;10.230;2023-08-07T14:56:50;29.60;65.90
45765;DHT22;31474;45.332;10.230;2023-08-07T14:59:16;29.60;65.80
45765;DHT22;31474;45.332;10.230;2023-08-07T15:01:42;29.70;66.00
45765;DHT22;31474;45.332;10.230;2023-08-07T15:04:07;29.60;65.20
45765;DHT22;31474;45.332;10.230;2023-08-07T15:06:33;29.50;64.80
45765;DHT22;31474;45.332;10.230;2023-08-07T15:08:59;29.50;62.80
45765;DHT22;31474;45.332;10.230;2023-08-07T15:11:25;29.50;63.70
45765;DHT22;31474;45.332;10.230;2023-08-07T15:13:50;29.50;64.80
45765;DHT22;31474;45.332;10.230;2023-08-07T15:16:16;29.50;64.20